Terminal Aerodrome Forecast
Issued by NWS Charleston, WV

Current Version | Previous Version | Graphics & Text | Print | Product List | Glossary On
Versions: 1 2 3 4 5 6 7 8 9 10 11 12 13 14 15 16 17 18 19 20 21 22 23 24 25
000
FTUS41 KRLX 112322
TAFCRW
TAF
KCRW 112322Z 1200/1224 16003KT P6SM SCT150
     FM120400 20007KT P6SM BKN100
     FM120800 24010KT P6SM OVC040
     FM121100 25011G17KT 6SM -SHSN OVC030
     FM121400 27013G24KT 6SM -SHSN OVC015
     FM121700 29014G28KT 6SM -SHSN BKN025=

USA.gov is the U.S. government's official web portal to all federal, state and local government web resources and services.